createdAt,value
2018-06-29T00:02:10.405Z,97.30
2018-06-29T00:04:38.783Z,97.10
2018-06-29T00:07:07.209Z,97.00
2018-06-29T00:09:35.618Z,97.00
2018-06-29T00:12:04.023Z,97.20
2018-06-29T00:14:32.445Z,97.00
2018-06-29T00:19:28.951Z,97.10
2018-06-29T00:21:57.647Z,97.30
2018-06-29T00:24:26.578Z,97.50
2018-06-29T00:26:54.959Z,97.60
2018-06-29T00:29:23.458Z,97.40
2018-06-29T00:31:51.781Z,97.20
2018-06-29T00:34:20.166Z,97.10
2018-06-29T00:36:48.513Z,97.20
2018-06-29T00:39:16.881Z,97.00
2018-06-29T00:41:45.229Z,96.80
2018-06-29T00:44:13.630Z,96.40
2018-06-29T00:46:42.005Z,96.40
2018-06-29T00:49:10.363Z,96.50
2018-06-29T00:51:38.725Z,96.40
2018-06-29T00:54:07.127Z,96.20
2018-06-29T01:01:31.675Z,96.10
2018-06-29T01:04:00.247Z,96.10
2018-06-29T01:06:28.780Z,96.40
2018-06-29T01:08:57.264Z,96.40
2018-06-29T01:11:25.754Z,96.50
2018-06-29T01:13:54.247Z,96.40
2018-06-29T01:16:22.723Z,96.40
2018-06-29T01:18:51.460Z,96.90
2018-06-29T01:21:19.927Z,96.80
2018-06-29T01:23:48.404Z,96.70
2018-06-29T01:26:16.946Z,96.40
2018-06-29T01:28:45.536Z,96.40
2018-06-29T01:31:13.953Z,96.40
2018-06-29T01:33:42.458Z,96.10
2018-06-29T01:36:10.952Z,96.00
2018-06-29T01:38:39.427Z,96.20
2018-06-29T01:41:07.951Z,95.70
2018-06-29T01:43:36.434Z,95.80
2018-06-29T01:46:04.975Z,95.20
2018-06-29T01:48:33.446Z,95.40
2018-06-29T01:51:01.937Z,95.30
2018-06-29T01:53:30.411Z,95.20
2018-06-29T01:55:58.926Z,95.30
2018-06-29T01:58:27.489Z,95.20
2018-06-29T02:00:55.987Z,95.50
2018-06-29T02:03:24.451Z,95.50
2018-06-29T02:05:53.019Z,95.60
2018-06-29T02:08:21.479Z,96.00
2018-06-29T02:10:49.965Z,95.60
2018-06-29T02:13:18.449Z,95.20
2018-06-29T02:15:46.975Z,95.00
2018-06-29T02:18:15.547Z,95.90
2018-06-29T02:20:44.055Z,95.70
2018-06-29T02:23:12.543Z,95.80
2018-06-29T02:25:41.023Z,96.10
2018-06-29T02:28:09.495Z,96.40
2018-06-29T02:30:37.994Z,96.40
2018-06-29T02:33:06.548Z,96.70
2018-06-29T02:35:35.048Z,97.50
2018-06-29T02:38:03.768Z,97.90
2018-06-29T02:40:32.280Z,98.00
2018-06-29T02:43:00.768Z,98.20
2018-06-29T02:45:29.302Z,97.80
2018-06-29T02:47:57.767Z,96.70
2018-06-29T02:50:26.266Z,97.10
2018-06-29T02:52:54.757Z,96.80
2018-06-29T02:55:23.240Z,97.60
2018-06-29T02:57:51.618Z,97.60
2018-06-29T03:00:19.997Z,97.90
2018-06-29T03:02:48.367Z,97.80
2018-06-29T03:05:16.746Z,98.00
2018-06-29T03:07:45.130Z,99.20
2018-06-29T03:10:13.482Z,99.50
2018-06-29T03:12:41.874Z,99.60
2018-06-29T03:15:10.222Z,99.30
2018-06-29T03:17:38.608Z,98.10
2018-06-29T03:20:07.117Z,98.90
2018-06-29T03:22:35.566Z,99.60
2018-06-29T03:25:04.087Z,99.80
2018-06-29T03:27:32.493Z,99.70
2018-06-29T03:30:01.163Z,99.30
2018-06-29T03:32:29.575Z,99.50
2018-06-29T03:34:57.998Z,99.80
2018-06-29T03:37:26.412Z,99.70
2018-06-29T03:39:54.907Z,99.90
2018-06-29T03:42:23.331Z,99.70
2018-06-29T03:44:51.741Z,99.90
2018-06-29T03:47:20.298Z,99.90
2018-06-29T03:49:48.720Z,99.60
2018-06-29T03:52:17.189Z,99.10
2018-06-29T03:54:45.610Z,99.30
2018-06-29T03:57:14.061Z,99.60
2018-06-29T03:59:42.492Z,99.30
2018-06-29T04:02:10.953Z,99.60
2018-06-29T04:04:39.368Z,99.30
2018-06-29T04:07:07.864Z,99.50
2018-06-29T04:09:36.259Z,99.90
2018-06-29T04:12:04.703Z,99.90
2018-06-29T04:14:33.154Z,99.90
2018-06-29T04:17:01.592Z,99.90
2018-06-29T04:19:29.961Z,99.90
2018-06-29T04:24:26.439Z,99.90
2018-06-29T04:26:54.816Z,99.90
2018-06-29T04:29:23.219Z,99.90
2018-06-29T04:31:51.584Z,99.90
2018-06-29T04:34:19.947Z,99.90
2018-06-29T04:39:16.397Z,99.90
2018-06-29T04:41:44.757Z,99.60
2018-06-29T04:44:13.164Z,99.70
2018-06-29T04:46:41.519Z,99.40
2018-06-29T04:49:09.894Z,99.20
2018-06-29T04:51:38.271Z,99.30
2018-06-29T04:54:06.667Z,98.30
2018-06-29T04:56:35.043Z,98.80
2018-06-29T04:59:03.449Z,98.70
2018-06-29T05:01:31.845Z,98.60
2018-06-29T05:04:00.256Z,98.10
2018-06-29T05:06:28.623Z,98.60
2018-06-29T05:08:57.023Z,98.00
2018-06-29T05:11:25.394Z,97.90
2018-06-29T05:13:53.840Z,97.90
2018-06-29T05:16:22.238Z,98.10
2018-06-29T05:18:50.713Z,97.90
2018-06-29T05:21:19.126Z,98.00
2018-06-29T05:23:47.578Z,98.10
2018-06-29T05:26:16.026Z,98.10
2018-06-29T05:28:44.450Z,97.80
2018-06-29T05:31:12.881Z,97.80
2018-06-29T05:33:41.282Z,97.80
2018-06-29T05:36:09.721Z,97.60
2018-06-29T05:38:38.139Z,98.00
2018-06-29T05:41:06.607Z,97.80
2018-06-29T05:43:35.155Z,98.00
2018-06-29T05:46:03.661Z,97.90
2018-06-29T05:48:32.088Z,97.60
2018-06-29T05:51:00.561Z,97.70
2018-06-29T05:53:28.959Z,97.80
2018-06-29T05:55:57.391Z,98.00
2018-06-29T05:58:25.808Z,98.10
2018-06-29T06:00:54.282Z,98.00
2018-06-29T06:03:22.710Z,98.20
2018-06-29T06:05:51.181Z,97.80
2018-06-29T06:08:19.588Z,97.50
2018-06-29T06:10:48.049Z,97.50
2018-06-29T06:13:16.477Z,97.30
2018-06-29T06:15:45.051Z,97.10
2018-06-29T06:18:13.485Z,96.70
2018-06-29T06:20:41.935Z,96.50
2018-06-29T06:23:16.558Z,95.80
2018-06-29T06:25:45.406Z,95.50
2018-06-29T06:28:13.873Z,95.00
2018-06-29T06:30:42.323Z,94.10
2018-06-29T06:33:10.802Z,94.10
2018-06-29T06:35:39.228Z,93.70
2018-06-29T06:38:07.647Z,93.60
2018-06-29T06:40:36.160Z,93.70
2018-06-29T06:43:05.169Z,92.90
2018-06-29T06:45:33.734Z,92.80
2018-06-29T06:48:02.176Z,91.90
2018-06-29T06:50:30.691Z,90.60
2018-06-29T06:52:59.118Z,90.70
2018-06-29T06:55:27.621Z,90.00
2018-06-29T06:57:56.072Z,90.30
2018-06-29T07:00:24.519Z,90.50
2018-06-29T07:02:52.939Z,90.30
2018-06-29T07:05:21.424Z,90.40
2018-06-29T07:07:49.864Z,89.10
2018-06-29T07:10:18.344Z,88.70
2018-06-29T07:12:46.832Z,88.90
2018-06-29T07:15:15.241Z,89.40
2018-06-29T07:17:43.679Z,86.90
2018-06-29T07:20:12.372Z,85.70
2018-06-29T07:22:40.793Z,87.30
2018-06-29T07:25:09.219Z,87.10
2018-06-29T07:27:37.620Z,85.90
2018-06-29T07:30:07.335Z,86.20
2018-06-29T07:32:35.745Z,87.20
2018-06-29T07:35:04.217Z,87.40
2018-06-29T07:37:32.632Z,87.80
2018-06-29T07:40:01.104Z,86.10
2018-06-29T07:42:29.507Z,86.80
2018-06-29T07:44:57.888Z,87.90
2018-06-29T07:47:27.160Z,85.40
2018-06-29T07:49:55.599Z,84.30
2018-06-29T07:52:24.006Z,84.30
2018-06-29T07:54:52.398Z,85.60
2018-06-29T07:57:20.845Z,86.10
2018-06-29T07:59:49.265Z,86.20
2018-06-29T08:02:17.674Z,86.00
2018-06-29T08:04:46.074Z,85.70
2018-06-29T08:07:14.494Z,85.80
2018-06-29T08:09:42.929Z,85.10
2018-06-29T08:12:11.319Z,86.00
2018-06-29T08:14:39.668Z,85.30
2018-06-29T08:17:08.059Z,85.10
2018-06-29T08:19:36.435Z,85.50
2018-06-29T08:22:04.839Z,84.70
2018-06-29T08:24:33.260Z,82.80
2018-06-29T08:27:01.670Z,83.10
2018-06-29T08:29:30.035Z,83.00
2018-06-29T08:31:58.453Z,81.40
2018-06-29T08:34:26.851Z,81.90
2018-06-29T08:36:55.215Z,82.40
2018-06-29T08:39:23.626Z,81.40
2018-06-29T08:41:52.046Z,81.30
2018-06-29T08:44:20.485Z,81.40
2018-06-29T08:46:48.908Z,80.40
2018-06-29T08:49:17.258Z,81.90
2018-06-29T08:51:45.624Z,81.20
2018-06-29T08:54:14.027Z,81.20
2018-06-29T08:56:42.441Z,81.00
2018-06-29T08:59:10.824Z,80.80
2018-06-29T09:01:39.176Z,80.90
2018-06-29T09:04:07.598Z,79.70
2018-06-29T09:06:35.997Z,80.10
2018-06-29T09:09:06.859Z,79.30
2018-06-29T09:11:35.230Z,79.00
2018-06-29T09:14:04.223Z,79.50
2018-06-29T09:16:32.609Z,79.10
2018-06-29T09:19:01.229Z,78.00
2018-06-29T09:21:29.615Z,77.30
2018-06-29T09:23:58.316Z,77.00
2018-06-29T09:26:26.771Z,76.70
2018-06-29T09:28:55.517Z,75.90
2018-06-29T09:31:24.007Z,75.30
2018-06-29T09:33:52.514Z,74.30
2018-06-29T09:36:20.972Z,72.70
2018-06-29T09:38:49.405Z,71.00
2018-06-29T09:43:45.980Z,71.90
2018-06-29T09:48:42.558Z,70.60
2018-06-29T09:51:11.016Z,70.80
2018-06-29T09:53:39.497Z,71.80
2018-06-29T09:56:07.913Z,72.10
2018-06-29T09:58:36.394Z,70.80
2018-06-29T10:01:04.868Z,71.10
2018-06-29T10:03:33.314Z,71.40
2018-06-29T10:06:01.800Z,71.90
2018-06-29T10:08:30.321Z,71.70
2018-06-29T10:10:58.770Z,71.90
2018-06-29T10:13:27.249Z,72.00
2018-06-29T10:15:55.790Z,72.20
2018-06-29T10:18:24.330Z,72.20
2018-06-29T10:20:52.830Z,70.60
2018-06-29T10:23:21.321Z,70.50
2018-06-29T10:25:49.839Z,70.40
2018-06-29T10:28:18.259Z,70.70
2018-06-29T10:30:46.781Z,70.90
2018-06-29T10:33:16.781Z,69.70
2018-06-29T10:35:57.646Z,70.00
2018-06-29T10:38:26.388Z,69.00
2018-06-29T10:40:54.840Z,68.50
2018-06-29T10:43:23.444Z,68.40
2018-06-29T10:45:51.911Z,69.00
2018-06-29T10:48:20.402Z,69.60
2018-06-29T10:50:48.865Z,70.20
2018-06-29T10:53:17.300Z,70.20
2018-06-29T10:55:45.783Z,69.00
2018-06-29T10:58:14.252Z,69.00
2018-06-29T11:00:42.737Z,68.10
2018-06-29T11:03:11.209Z,67.90
2018-06-29T11:05:39.675Z,67.40
2018-06-29T11:08:08.087Z,67.60
2018-06-29T11:10:36.535Z,67.30
2018-06-29T11:13:04.971Z,68.00
2018-06-29T11:15:33.399Z,67.50
2018-06-29T11:18:01.850Z,66.70
2018-06-29T11:20:30.283Z,66.30
2018-06-29T11:22:58.670Z,67.30
2018-06-29T11:25:27.062Z,67.20
2018-06-29T11:27:55.480Z,67.90
2018-06-29T11:30:24.045Z,67.90
2018-06-29T11:35:20.542Z,66.70
2018-06-29T11:37:48.931Z,65.40
2018-06-29T11:40:17.369Z,66.00
2018-06-29T11:42:45.759Z,65.80
2018-06-29T11:45:14.211Z,66.30
2018-06-29T11:47:42.617Z,66.50
2018-06-29T11:50:11.008Z,65.50
2018-06-29T11:52:39.403Z,65.80
2018-06-29T11:55:07.985Z,65.80
2018-06-29T11:57:36.413Z,65.80
2018-06-29T12:00:05.628Z,64.70
2018-06-29T12:02:34.054Z,65.60
2018-06-29T12:05:02.618Z,63.80
2018-06-29T12:07:31.092Z,64.00
2018-06-29T12:09:59.520Z,63.40
2018-06-29T12:12:27.980Z,62.00
2018-06-29T12:14:56.481Z,62.50
2018-06-29T12:17:24.931Z,62.70
2018-06-29T12:19:53.353Z,63.80
2018-06-29T12:22:21.758Z,63.70
2018-06-29T12:24:50.138Z,63.70
2018-06-29T12:27:18.571Z,62.60
2018-06-29T12:29:46.935Z,62.00
2018-06-29T12:32:15.315Z,61.20
2018-06-29T12:34:43.756Z,61.20
2018-06-29T12:37:12.160Z,60.60
2018-06-29T12:39:40.616Z,60.60
2018-06-29T12:42:09.035Z,61.10
2018-06-29T12:44:37.421Z,61.70
2018-06-29T12:47:05.872Z,60.80
2018-06-29T12:49:34.309Z,61.10
2018-06-29T12:54:30.851Z,61.00
2018-06-29T12:56:59.240Z,60.20
2018-06-29T12:59:27.614Z,60.40
2018-06-29T13:01:56.019Z,59.90
2018-06-29T13:04:24.452Z,60.10
2018-06-29T13:06:52.842Z,59.50
2018-06-29T13:09:21.515Z,58.80
2018-06-29T13:11:49.927Z,58.40
2018-06-29T13:14:18.396Z,58.80
2018-06-29T13:16:46.787Z,59.20
2018-06-29T13:19:15.166Z,58.90
2018-06-29T13:21:43.597Z,58.60
2018-06-29T13:24:12.037Z,58.30
2018-06-29T13:26:40.430Z,58.40
2018-06-29T13:29:08.852Z,58.00
2018-06-29T13:31:37.261Z,58.30
2018-06-29T13:34:05.784Z,58.60
2018-06-29T13:36:34.185Z,58.30
2018-06-29T13:39:02.613Z,58.10
2018-06-29T13:41:31.006Z,57.80
2018-06-29T13:43:59.541Z,57.10
2018-06-29T13:46:27.927Z,58.30
2018-06-29T13:48:56.360Z,58.10
2018-06-29T13:51:24.762Z,58.60
2018-06-29T13:53:53.183Z,59.50
2018-06-29T13:56:24.485Z,60.50
2018-06-29T13:58:53.083Z,60.70
2018-06-29T14:01:21.439Z,60.50
2018-06-29T14:03:49.865Z,60.70
2018-06-29T14:06:18.289Z,60.60
2018-06-29T14:08:46.772Z,60.30
2018-06-29T14:11:15.184Z,60.10
2018-06-29T14:13:43.584Z,60.20
2018-06-29T14:16:11.957Z,61.20
2018-06-29T14:18:40.364Z,61.10
2018-06-29T14:21:08.802Z,62.10
2018-06-29T14:23:37.206Z,62.50
2018-06-29T14:26:05.768Z,61.30
2018-06-29T14:28:34.162Z,61.30
2018-06-29T14:31:02.597Z,61.30
2018-06-29T14:33:31.335Z,61.30
2018-06-29T14:38:27.893Z,58.70
2018-06-29T14:40:56.385Z,59.50
2018-06-29T14:43:24.819Z,58.10
2018-06-29T14:45:53.448Z,57.90
2018-06-29T14:48:22.338Z,58.50
2018-06-29T14:50:50.764Z,58.70
2018-06-29T14:53:19.144Z,58.00
2018-06-29T14:55:47.828Z,58.50
2018-06-29T14:58:16.255Z,58.20
2018-06-29T15:00:44.719Z,58.70
2018-06-29T15:03:13.118Z,58.50
2018-06-29T15:05:41.518Z,58.70
2018-06-29T15:08:09.900Z,58.60
2018-06-29T15:10:38.439Z,59.00
2018-06-29T15:13:07.204Z,59.10
2018-06-29T15:15:35.607Z,57.20
2018-06-29T15:18:04.099Z,56.60
2018-06-29T15:20:32.562Z,56.50
2018-06-29T15:23:01.005Z,56.20
2018-06-29T15:25:29.470Z,55.50
2018-06-29T15:27:58.511Z,55.70
2018-06-29T15:30:27.118Z,55.10
2018-06-29T15:32:55.481Z,55.40
2018-06-29T15:35:23.875Z,55.70
2018-06-29T15:37:52.228Z,56.70
2018-06-29T15:40:20.677Z,56.70
2018-06-29T15:42:49.073Z,56.80
2018-06-29T15:45:17.549Z,56.60
2018-06-29T15:47:46.274Z,56.70
2018-06-29T15:50:14.722Z,56.80
2018-06-29T15:52:43.137Z,56.00
2018-06-29T15:55:11.652Z,55.50
2018-06-29T15:57:40.008Z,55.10
2018-06-29T16:00:09.888Z,56.30
2018-06-29T16:02:38.376Z,56.40
2018-06-29T16:05:07.295Z,56.50
2018-06-29T16:07:35.690Z,56.50
2018-06-29T16:10:04.115Z,56.50
2018-06-29T16:12:32.567Z,56.50
2018-06-29T16:15:00.952Z,56.50
2018-06-29T16:17:29.370Z,56.50
2018-06-29T16:19:57.764Z,55.80
2018-06-29T16:22:26.196Z,56.50
2018-06-29T16:24:54.577Z,56.20
2018-06-29T16:27:22.980Z,56.50
2018-06-29T16:29:51.339Z,55.60
2018-06-29T16:32:19.740Z,55.20
2018-06-29T16:34:48.113Z,54.30
2018-06-29T16:37:16.551Z,54.50
2018-06-29T16:39:44.933Z,54.40
2018-06-29T16:42:13.318Z,54.00
2018-06-29T16:44:41.815Z,54.80
2018-06-29T16:47:10.185Z,54.30
2018-06-29T16:49:38.610Z,54.20
2018-06-29T16:52:07.081Z,54.00
2018-06-29T16:54:35.536Z,54.00
2018-06-29T16:57:04.082Z,54.50
2018-06-29T16:59:32.477Z,55.00
2018-06-29T17:02:00.889Z,55.40
2018-06-29T17:04:29.314Z,54.50
2018-06-29T17:06:57.728Z,54.60
2018-06-29T17:09:26.143Z,55.00
2018-06-29T17:11:54.613Z,54.90
2018-06-29T17:14:23.208Z,55.30
2018-06-29T17:19:19.767Z,55.00
2018-06-29T17:21:48.172Z,55.20
2018-06-29T17:24:16.599Z,55.30
2018-06-29T17:26:45.012Z,54.80
2018-06-29T17:29:13.422Z,55.50
2018-06-29T17:31:41.845Z,55.50
2018-06-29T17:34:10.433Z,56.20
2018-06-29T17:36:38.758Z,56.30
2018-06-29T17:39:09.135Z,55.70
2018-06-29T17:41:37.710Z,55.80
2018-06-29T17:44:06.109Z,55.90
2018-06-29T17:46:34.576Z,55.20
2018-06-29T17:49:03.163Z,55.50
2018-06-29T17:51:31.553Z,56.50
2018-06-29T17:54:00.002Z,55.30
2018-06-29T17:56:28.363Z,55.40
2018-06-29T17:58:56.761Z,55.20
2018-06-29T18:01:25.173Z,55.20
2018-06-29T18:03:53.550Z,55.10
2018-06-29T18:06:22.044Z,55.40
2018-06-29T18:11:18.569Z,55.10
2018-06-29T18:13:46.952Z,55.10
2018-06-29T18:16:15.428Z,55.00
2018-06-29T18:18:43.849Z,54.70
2018-06-29T18:21:12.248Z,55.50
2018-06-29T18:23:40.641Z,55.50
2018-06-29T18:26:09.035Z,56.00
2018-06-29T18:28:37.510Z,56.40
2018-06-29T18:31:05.951Z,57.00
2018-06-29T18:33:34.374Z,57.60
2018-06-29T18:36:02.793Z,58.30
2018-06-29T18:38:31.205Z,58.50
2018-06-29T18:40:59.569Z,58.80
2018-06-29T18:43:28.007Z,59.20
2018-06-29T18:45:56.436Z,59.40
2018-06-29T18:48:24.863Z,59.20
2018-06-29T18:50:53.234Z,59.60
2018-06-29T18:53:21.630Z,60.30
2018-06-29T18:55:49.993Z,60.00
2018-06-29T18:58:18.391Z,60.50
2018-06-29T19:00:46.804Z,60.70
2018-06-29T19:03:15.465Z,60.10
2018-06-29T19:05:43.903Z,61.60
2018-06-29T19:08:12.277Z,61.40
2018-06-29T19:10:40.677Z,62.40
2018-06-29T19:13:09.077Z,62.20
2018-06-29T19:15:37.529Z,63.20
2018-06-29T19:18:05.977Z,63.40
2018-06-29T19:20:34.399Z,63.30
2018-06-29T19:23:02.779Z,63.30
2018-06-29T19:25:31.215Z,63.20
2018-06-29T19:27:59.588Z,63.20
2018-06-29T19:30:28.049Z,63.20
2018-06-29T19:32:56.417Z,63.70
2018-06-29T19:35:24.819Z,63.10
2018-06-29T19:37:53.562Z,63.20
2018-06-29T19:40:21.922Z,64.30
2018-06-29T19:42:50.327Z,64.40
2018-06-29T19:45:18.752Z,64.00
2018-06-29T19:47:47.132Z,64.40
2018-06-29T19:50:15.522Z,64.80
2018-06-29T19:52:43.920Z,65.90
2018-06-29T19:55:12.309Z,66.10
2018-06-29T19:57:40.656Z,66.30
2018-06-29T20:00:09.066Z,66.90
2018-06-29T20:02:37.408Z,67.10
2018-06-29T20:05:05.892Z,68.00
2018-06-29T20:07:34.233Z,68.30
2018-06-29T20:10:02.673Z,68.30
2018-06-29T20:12:31.055Z,68.40
2018-06-29T20:14:59.445Z,68.10
2018-06-29T20:17:27.826Z,68.10
2018-06-29T20:19:56.285Z,68.90
2018-06-29T20:22:24.766Z,69.10
2018-06-29T20:24:53.245Z,69.10
2018-06-29T20:27:21.668Z,69.30
2018-06-29T20:29:50.141Z,69.40
2018-06-29T20:32:18.561Z,69.50
2018-06-29T20:34:46.987Z,69.60
2018-06-29T20:37:15.426Z,70.30
2018-06-29T20:39:43.875Z,70.20
2018-06-29T20:42:12.337Z,70.20
2018-06-29T20:44:40.745Z,70.20
2018-06-29T20:47:09.307Z,70.10
2018-06-29T20:49:37.732Z,70.10
2018-06-29T20:52:06.865Z,70.20
2018-06-29T20:54:35.311Z,70.70
2018-06-29T20:57:03.751Z,70.50
2018-06-29T20:59:32.167Z,70.20
2018-06-29T21:02:00.602Z,70.10
2018-06-29T21:04:29.029Z,71.40
2018-06-29T21:06:58.341Z,72.00
2018-06-29T21:09:26.762Z,71.30
2018-06-29T21:11:55.211Z,71.30
2018-06-29T21:14:23.671Z,71.20
2018-06-29T21:16:52.131Z,71.00
2018-06-29T21:19:20.611Z,71.00
2018-06-29T21:21:49.079Z,71.20
2018-06-29T21:24:17.542Z,71.30
2018-06-29T21:26:46.000Z,71.50
2018-06-29T21:29:14.409Z,72.80
2018-06-29T21:31:42.835Z,73.40
2018-06-29T21:34:11.269Z,74.00
2018-06-29T21:36:39.697Z,74.10
2018-06-29T21:39:09.330Z,74.20
2018-06-29T21:41:37.932Z,74.50
2018-06-29T21:44:06.656Z,74.80
2018-06-29T21:46:35.787Z,75.40
2018-06-29T21:49:04.241Z,75.90
2018-06-29T21:51:32.937Z,75.80
2018-06-29T21:54:01.431Z,76.50
2018-06-29T21:56:29.887Z,76.60
2018-06-29T21:58:58.358Z,77.20
2018-06-29T22:01:26.799Z,77.10
2018-06-29T22:03:55.215Z,77.00
2018-06-29T22:06:23.641Z,77.30
2018-06-29T22:08:52.077Z,77.60
2018-06-29T22:11:20.512Z,78.10
2018-06-29T22:13:48.953Z,78.40
2018-06-29T22:16:17.370Z,79.00
2018-06-29T22:18:45.828Z,79.10
2018-06-29T22:21:14.312Z,79.30
2018-06-29T22:23:42.796Z,79.60
2018-06-29T22:26:11.232Z,79.70
2018-06-29T22:28:39.627Z,79.40
2018-06-29T22:31:08.047Z,79.30
2018-06-29T22:33:36.456Z,79.80
2018-06-29T22:36:04.942Z,80.80
2018-06-29T22:38:33.389Z,81.20
2018-06-29T22:41:01.843Z,81.80
2018-06-29T22:43:30.227Z,82.60
2018-06-29T22:45:58.605Z,82.80
2018-06-29T22:48:26.974Z,83.20
2018-06-29T22:50:56.179Z,83.70
2018-06-29T22:53:24.559Z,83.50
2018-06-29T22:55:52.925Z,84.80
2018-06-29T22:58:21.314Z,84.20
2018-06-29T23:00:49.718Z,84.00
2018-06-29T23:03:18.117Z,84.70
2018-06-29T23:05:46.473Z,84.80
2018-06-29T23:08:14.882Z,85.20
2018-06-29T23:10:43.273Z,84.90
2018-06-29T23:13:11.671Z,84.80
2018-06-29T23:15:40.020Z,84.70
2018-06-29T23:18:08.394Z,85.40
2018-06-29T23:20:36.787Z,85.60
2018-06-29T23:23:05.560Z,86.20
2018-06-29T23:25:33.927Z,86.50
2018-06-29T23:28:02.285Z,86.80
2018-06-29T23:30:30.666Z,86.60
2018-06-29T23:32:59.058Z,86.50
2018-06-29T23:35:27.439Z,86.60
2018-06-29T23:37:55.810Z,86.90
2018-06-29T23:40:24.209Z,87.10
2018-06-29T23:42:52.593Z,86.90
2018-06-29T23:45:20.986Z,87.20
2018-06-29T23:47:49.323Z,87.60
2018-06-29T23:50:17.718Z,87.10
2018-06-29T23:52:46.107Z,87.50
2018-06-29T23:55:14.502Z,87.70
2018-06-29T23:57:42.872Z,87.90
